Time;durP1;ratioP1;P1;durP2;ratioP2;P2;SDS_P1;SDS_P2;PMS_P1;PMS_P2;Temp;Humidity;BMP_temperature;BMP_pressure;BME280_temperature;BME280_humidity;BME280_pressure;Samples;Min_cycle;Max_cycle;Signal;HPM_P1;HPM_P2
2021/06/28 00:01:40;;;;;;;8.20;7.40;;;20.10;99.90;;;;;;5037676;28;20475;-83
2021/06/28 00:04:06;;;;;;;8.30;7.50;;;20.00;99.90;;;;;;5037572;28;20472;-83
2021/06/28 00:06:34;;;;;;;10.63;8.40;;;20.00;99.90;;;;;;5046711;28;20962;-80
2021/06/28 00:09:01;;;;;;;8.33;7.47;;;20.00;99.90;;;;;;5043255;28;20442;-81
2021/06/28 00:11:28;;;;;;;10.00;7.83;;;19.90;99.90;;;;;;5036957;28;20482;-83
2021/06/28 00:13:54;;;;;;;8.67;7.77;;;19.90;99.90;;;;;;5037854;28;20512;-83
2021/06/28 00:16:23;;;;;;;9.07;7.47;;;19.80;99.90;;;;;;5043123;28;20452;-82
2021/06/28 00:18:50;;;;;;;8.13;7.33;;;19.80;99.90;;;;;;5047540;28;20517;-81
2021/06/28 00:21:17;;;;;;;8.80;7.33;;;19.80;99.90;;;;;;5043726;28;20528;-83
2021/06/28 00:23:45;;;;;;;7.67;6.97;;;19.70;99.90;;;;;;5040641;28;20449;-84
2021/06/28 00:26:12;;;;;;;8.27;7.57;;;19.70;99.90;;;;;;5037750;28;20454;-84
2021/06/28 00:28:39;;;;;;;7.23;6.53;;;19.70;99.90;;;;;;5038098;28;20450;-83
2021/06/28 00:31:05;;;;;;;8.90;8.03;;;19.60;99.90;;;;;;5038050;28;21041;-83
2021/06/28 00:33:32;;;;;;;7.83;7.03;;;19.70;99.90;;;;;;5041681;28;21037;-84
2021/06/28 00:35:59;;;;;;;8.80;7.97;;;19.70;99.90;;;;;;5039397;28;20511;-83
2021/06/28 00:38:25;;;;;;;9.10;7.83;;;19.60;99.90;;;;;;5037610;28;20497;-83
2021/06/28 00:40:53;;;;;;;8.50;7.57;;;19.50;99.90;;;;;;5037267;28;20620;-83
2021/06/28 00:43:20;;;;;;;11.10;8.10;;;19.50;99.90;;;;;;5038152;28;20866;-82
2021/06/28 00:45:46;;;;;;;9.17;8.33;;;19.50;99.90;;;;;;5040943;28;20938;-82
2021/06/28 00:48:15;;;;;;;8.97;8.07;;;19.50;99.90;;;;;;5041272;28;20449;-83
2021/06/28 00:50:45;;;;;;;9.50;8.60;;;19.40;99.90;;;;;;5041056;28;20508;-82
2021/06/28 00:53:13;;;;;;;8.43;7.50;;;19.40;99.90;;;;;;5040118;28;20481;-83
2021/06/28 00:55:42;;;;;;;9.70;8.80;;;19.30;99.90;;;;;;5042192;28;20449;-83
2021/06/28 00:58:11;;;;;;;10.57;8.97;;;19.30;99.90;;;;;;5042465;28;20448;-83
2021/06/28 01:00:39;;;;;;;9.13;7.50;;;19.30;99.90;;;;;;5042840;28;20440;-84
2021/06/28 01:03:06;;;;;;;9.27;8.37;;;19.30;99.90;;;;;;5042723;28;20860;-83
2021/06/28 01:05:34;;;;;;;8.20;7.40;;;19.30;99.90;;;;;;5042491;28;20449;-83
2021/06/28 01:08:02;;;;;;;9.90;8.30;;;19.30;99.90;;;;;;5040366;28;20871;-84
2021/06/28 01:10:29;;;;;;;9.10;8.30;;;19.20;99.90;;;;;;5040962;28;20457;-83
2021/06/28 01:12:56;;;;;;;10.00;8.47;;;19.20;99.90;;;;;;5043186;28;20524;-84
2021/06/28 01:15:25;;;;;;;9.93;8.87;;;19.20;99.90;;;;;;5041010;28;20483;-84
2021/06/28 01:17:53;;;;;;;9.70;8.80;;;19.10;99.90;;;;;;5039446;28;20448;-83
2021/06/28 01:20:22;;;;;;;9.13;8.33;;;19.10;99.90;;;;;;5040408;28;20453;-84
2021/06/28 01:22:51;;;;;;;8.77;7.97;;;19.10;99.90;;;;;;5040155;28;20471;-83
2021/06/28 01:25:20;;;;;;;9.40;8.50;;;19.10;99.90;;;;;;5040461;28;20449;-83
2021/06/28 01:27:48;;;;;;;9.93;9.03;;;19.10;99.90;;;;;;5039414;28;20976;-83
2021/06/28 01:30:17;;;;;;;9.93;8.97;;;19.10;99.90;;;;;;5039711;28;20843;-83
2021/06/28 01:32:45;;;;;;;9.97;8.27;;;19.10;99.90;;;;;;5039783;28;20472;-84
2021/06/28 01:35:13;;;;;;;10.13;7.93;;;19.00;99.90;;;;;;5039882;28;20457;-84
2021/06/28 01:37:40;;;;;;;10.00;8.83;;;18.90;99.90;;;;;;5040179;28;20530;-84
2021/06/28 01:40:10;;;;;;;11.10;8.53;;;18.90;99.90;;;;;;5039943;28;20457;-83
2021/06/28 01:42:39;;;;;;;9.10;8.30;;;18.90;99.90;;;;;;5042399;28;20476;-80
2021/06/28 01:45:09;;;;;;;8.87;8.07;;;18.90;99.90;;;;;;5052997;28;20444;-81
2021/06/28 01:47:36;;;;;;;8.50;7.70;;;18.90;99.90;;;;;;5040897;28;20817;-84
2021/06/28 01:50:04;;;;;;;8.97;8.17;;;19.00;99.90;;;;;;5042183;28;20479;-83
2021/06/28 01:52:31;;;;;;;12.70;8.20;;;18.90;99.90;;;;;;5040191;28;20597;-83
2021/06/28 01:54:57;;;;;;;9.80;9.00;;;18.90;99.90;;;;;;5051586;28;20518;-83
2021/06/28 01:57:24;;;;;;;8.63;7.83;;;19.00;99.90;;;;;;5040132;28;20507;-82
2021/06/28 01:59:52;;;;;;;8.77;7.97;;;18.90;99.90;;;;;;5038702;28;20864;-81
2021/06/28 02:02:18;;;;;;;8.50;7.80;;;18.90;99.90;;;;;;5038095;28;20502;-82
2021/06/28 02:04:47;;;;;;;8.27;7.47;;;18.90;99.90;;;;;;5038447;28;20472;-83
2021/06/28 02:07:14;;;;;;;9.40;8.60;;;19.00;99.90;;;;;;5038242;28;20917;-82
2021/06/28 02:09:41;;;;;;;9.33;8.63;;;19.00;99.90;;;;;;5046967;28;20447;-82
2021/06/28 02:12:09;;;;;;;8.90;8.20;;;18.90;99.90;;;;;;5047546;28;20502;-83
2021/06/28 02:14:36;;;;;;;8.97;8.17;;;18.90;99.90;;;;;;5046707;28;20873;-83
2021/06/28 02:17:04;;;;;;;8.80;7.90;;;18.90;99.90;;;;;;5039744;28;20570;-82
2021/06/28 02:19:31;;;;;;;8.57;7.83;;;18.80;99.90;;;;;;5038568;28;20487;-83
2021/06/28 02:21:57;;;;;;;10.00;9.10;;;18.90;99.90;;;;;;5038359;28;20476;-83
2021/06/28 02:24:24;;;;;;;9.73;8.83;;;19.00;99.90;;;;;;5039264;28;20467;-83
2021/06/28 02:26:51;;;;;;;8.30;7.60;;;18.80;99.90;;;;;;5039090;28;21022;-83
2021/06/28 02:29:18;;;;;;;8.93;8.03;;;18.70;99.90;;;;;;5043403;28;20450;-83
2021/06/28 02:31:45;;;;;;;10.03;7.63;;;18.70;99.90;;;;;;5039758;28;20468;-83
2021/06/28 02:34:13;;;;;;;8.53;7.77;;;18.70;99.90;;;;;;5039639;28;20485;-84
2021/06/28 02:36:40;;;;;;;10.03;8.47;;;18.70;99.90;;;;;;5040901;28;20452;-83
2021/06/28 02:39:08;;;;;;;9.20;8.43;;;18.70;99.90;;;;;;5040211;28;20463;-84
2021/06/28 02:41:35;;;;;;;9.20;8.40;;;18.60;99.90;;;;;;5039522;28;20599;-84
2021/06/28 02:44:02;;;;;;;9.70;8.70;;;18.70;99.90;;;;;;5038758;28;20947;-83
2021/06/28 02:46:29;;;;;;;9.43;8.43;;;18.60;99.90;;;;;;5038247;28;20526;-83
2021/06/28 02:48:55;;;;;;;9.77;8.97;;;18.50;99.90;;;;;;5039156;28;20454;-83
2021/06/28 02:51:23;;;;;;;9.27;8.47;;;18.40;99.90;;;;;;5038884;28;20471;-83
2021/06/28 02:53:51;;;;;;;9.27;8.47;;;18.40;99.90;;;;;;5037010;28;20533;-83
2021/06/28 02:56:19;;;;;;;9.80;8.80;;;18.30;99.90;;;;;;5037673;28;20498;-82
2021/06/28 02:58:48;;;;;;;10.77;9.57;;;18.30;99.90;;;;;;5041835;28;20454;-82
2021/06/28 03:01:16;;;;;;;10.47;8.00;;;18.30;99.90;;;;;;5045683;28;20471;-82
2021/06/28 03:03:43;;;;;;;9.90;8.70;;;18.30;99.90;;;;;;5047652;28;20482;-82
2021/06/28 03:06:10;;;;;;;10.60;9.50;;;18.30;99.90;;;;;;5044155;28;20478;-83
2021/06/28 03:08:38;;;;;;;9.17;8.40;;;18.30;99.90;;;;;;5043135;28;20523;-82
2021/06/28 03:11:05;;;;;;;9.80;8.90;;;18.30;99.90;;;;;;5042900;28;20467;-84
2021/06/28 03:13:32;;;;;;;9.67;8.87;;;18.20;99.90;;;;;;5039032;28;20506;-83
2021/06/28 03:15:59;;;;;;;9.23;8.43;;;18.20;99.90;;;;;;5038760;28;20452;-82
2021/06/28 03:18:26;;;;;;;10.17;8.40;;;18.20;99.90;;;;;;5039051;28;20451;-82
2021/06/28 03:20:53;;;;;;;9.83;8.93;;;18.20;99.90;;;;;;5037694;28;20475;-83
2021/06/28 03:23:20;;;;;;;11.67;8.90;;;18.20;99.90;;;;;;5040577;28;20935;-80
2021/06/28 03:25:49;;;;;;;9.67;8.77;;;18.20;99.90;;;;;;5039221;28;20487;-81
2021/06/28 03:28:15;;;;;;;9.57;8.63;;;18.20;99.90;;;;;;5038740;28;20456;-81
2021/06/28 03:30:42;;;;;;;10.77;9.57;;;18.60;99.90;;;;;;5038014;28;20440;-83
2021/06/28 03:33:09;;;;;;;10.60;9.60;;;18.50;99.90;;;;;;5037911;28;20456;-83
2021/06/28 03:35:37;;;;;;;10.63;9.63;;;18.50;99.90;;;;;;5038223;28;20904;-81
2021/06/28 03:38:04;;;;;;;10.60;9.60;;;18.50;99.90;;;;;;5038244;28;20970;-83
2021/06/28 03:40:33;;;;;;;8.77;7.90;;;18.60;99.90;;;;;;5038997;28;20454;-83
2021/06/28 03:43:02;;;;;;;10.53;9.63;;;18.60;99.90;;;;;;5046280;28;20444;-81
2021/06/28 03:45:29;;;;;;;10.80;9.27;;;18.70;99.90;;;;;;5048366;28;20432;-83
2021/06/28 03:47:56;;;;;;;8.97;8.17;;;18.70;99.90;;;;;;5039507;28;20447;-82
2021/06/28 03:50:22;;;;;;;10.47;9.40;;;18.70;99.90;;;;;;5039372;28;20443;-83
2021/06/28 03:52:49;;;;;;;10.93;9.30;;;18.70;99.90;;;;;;5040780;28;20498;-83
2021/06/28 03:55:16;;;;;;;10.87;9.50;;;18.70;99.90;;;;;;5042664;28;20510;-83
2021/06/28 03:57:46;;;;;;;9.63;8.73;;;18.70;99.90;;;;;;5052382;28;20447;-80
2021/06/28 04:00:17;;;;;;;9.30;8.50;;;18.70;99.90;;;;;;5081969;22;20486;-80
2021/06/28 04:02:44;;;;;;;9.70;8.70;;;18.80;99.90;;;;;;5051203;28;20487;-80
2021/06/28 04:05:14;;;;;;;9.50;8.60;;;18.90;99.90;;;;;;5051020;28;20441;-81
2021/06/28 04:07:40;;;;;;;9.63;8.73;;;18.90;99.90;;;;;;5050942;28;20441;-83
2021/06/28 04:10:08;;;;;;;9.23;8.43;;;18.90;99.90;;;;;;5047625;28;20465;-82
2021/06/28 04:15:00;;;;;;;9.40;8.50;;;19.00;99.90;;;;;;5058032;22;20528;-77
2021/06/28 04:17:28;;;;;;;10.07;9.20;;;19.10;99.90;;;;;;5037375;28;20666;-78
2021/06/28 04:19:55;;;;;;;9.47;8.53;;;19.10;99.90;;;;;;5037956;28;20551;-78
2021/06/28 04:22:21;;;;;;;10.13;9.23;;;19.20;99.90;;;;;;5037912;28;20478;-78
2021/06/28 04:24:48;;;;;;;13.40;8.43;;;19.20;99.90;;;;;;5039486;28;20467;-78
2021/06/28 04:27:15;;;;;;;10.43;8.40;;;19.20;99.90;;;;;;5037236;28;20495;-78
2021/06/28 04:29:42;;;;;;;8.43;7.70;;;19.30;99.90;;;;;;5037100;28;20483;-77
2021/06/28 04:32:08;;;;;;;9.33;8.43;;;19.30;99.90;;;;;;5037224;28;20468;-77
2021/06/28 04:34:38;;;;;;;9.30;8.40;;;19.40;99.90;;;;;;5036917;28;20483;-78
2021/06/28 04:37:04;;;;;;;11.60;10.40;;;19.50;99.90;;;;;;5040005;28;20458;-78
2021/06/28 04:39:31;;;;;;;8.70;7.90;;;19.90;99.90;;;;;;5039073;28;20453;-77
2021/06/28 04:41:58;;;;;;;9.27;8.40;;;19.50;99.90;;;;;;5039512;28;20512;-77
2021/06/28 04:44:24;;;;;;;9.90;8.97;;;19.70;99.90;;;;;;5039661;28;20526;-77
2021/06/28 04:46:51;;;;;;;11.00;9.80;;;19.70;99.90;;;;;;5038262;28;20496;-78
2021/06/28 04:49:17;;;;;;;11.17;10.17;;;19.80;99.90;;;;;;5036752;28;20454;-78
2021/06/28 04:51:45;;;;;;;10.17;9.00;;;19.80;99.90;;;;;;5036337;28;20504;-78
2021/06/28 04:54:12;;;;;;;9.13;8.43;;;19.90;99.90;;;;;;5036180;28;20967;-78
2021/06/28 04:56:38;;;;;;;9.77;8.80;;;19.90;99.90;;;;;;5036117;28;20976;-78
2021/06/28 04:59:05;;;;;;;12.00;8.13;;;20.00;99.90;;;;;;5036427;28;20450;-78
2021/06/28 05:01:31;;;;;;;10.37;9.10;;;20.10;99.90;;;;;;5036115;28;20810;-78
2021/06/28 05:03:58;;;;;;;9.70;8.80;;;20.20;99.90;;;;;;5036646;28;20470;-78
2021/06/28 05:06:25;;;;;;;11.63;9.83;;;20.30;99.90;;;;;;5036755;28;20449;-78
2021/06/28 05:08:53;;;;;;;10.03;9.00;;;20.30;99.90;;;;;;5036757;28;20476;-78
2021/06/28 05:11:20;;;;;;;9.10;8.30;;;20.40;99.90;;;;;;5037048;28;20482;-77
2021/06/28 05:13:46;;;;;;;43.80;28.90;;;20.40;99.90;;;;;;5047290;28;20474;-76
2021/06/28 05:16:13;;;;;;;8.93;8.03;;;20.50;99.90;;;;;;5041165;28;20528;-78
2021/06/28 05:18:39;;;;;;;10.23;7.97;;;20.60;99.90;;;;;;5038520;28;20446;-78
2021/06/28 05:21:06;;;;;;;9.23;8.40;;;20.70;99.90;;;;;;5038113;28;20482;-78
2021/06/28 05:23:32;;;;;;;14.37;8.30;;;20.80;99.90;;;;;;5036146;28;20470;-78
2021/06/28 05:26:00;;;;;;;9.83;8.70;;;20.90;99.90;;;;;;5036425;28;20442;-77
2021/06/28 05:28:27;;;;;;;8.13;7.33;;;21.00;99.90;;;;;;5036322;28;20450;-78
2021/06/28 05:30:54;;;;;;;7.50;6.70;;;21.00;99.90;;;;;;5036691;28;20458;-77
2021/06/28 05:33:20;;;;;;;9.50;8.47;;;21.10;99.90;;;;;;5038218;28;20466;-77
2021/06/28 05:35:47;;;;;;;9.37;8.50;;;21.20;99.90;;;;;;5038585;28;20625;-77
2021/06/28 05:38:13;;;;;;;8.73;7.83;;;21.30;99.90;;;;;;5040033;28;20478;-77
2021/06/28 05:40:40;;;;;;;11.33;7.50;;;21.40;99.90;;;;;;5040991;28;20451;-77
2021/06/28 05:43:09;;;;;;;10.80;7.63;;;21.50;99.90;;;;;;5040564;28;20890;-77
2021/06/28 05:45:36;;;;;;;8.37;7.47;;;21.60;99.90;;;;;;5040165;28;20481;-79
2021/06/28 05:48:02;;;;;;;8.23;6.67;;;21.60;99.90;;;;;;5039992;28;21032;-79
2021/06/28 05:50:29;;;;;;;8.27;7.57;;;21.70;99.90;;;;;;5041189;28;20447;-79
2021/06/28 05:52:57;;;;;;;8.13;7.33;;;21.70;99.90;;;;;;5037438;28;20470;-80
2021/06/28 05:55:23;;;;;;;8.70;6.47;;;21.80;99.90;;;;;;5038065;28;20568;-79
2021/06/28 05:57:50;;;;;;;8.23;7.00;;;21.80;99.90;;;;;;5039427;28;20450;-79
2021/06/28 06:00:21;;;;;;;6.73;6.13;;;21.80;99.90;;;;;;5043819;28;20454;-80
2021/06/28 06:02:47;;;;;;;7.90;7.10;;;21.80;99.90;;;;;;5045149;28;20829;-80
2021/06/28 06:05:14;;;;;;;9.43;7.23;;;21.90;99.90;;;;;;5038254;28;20879;-80
2021/06/28 06:07:41;;;;;;;6.87;6.27;;;21.90;99.90;;;;;;5037526;28;20526;-80
2021/06/28 06:10:10;;;;;;;8.33;7.53;;;21.90;99.90;;;;;;5039745;28;20450;-80
2021/06/28 06:12:37;;;;;;;8.20;6.33;;;22.00;99.90;;;;;;5038589;28;20446;-80
2021/06/28 06:15:04;;;;;;;6.93;6.33;;;22.10;99.90;;;;;;5038254;28;20525;-80
2021/06/28 06:17:32;;;;;;;7.70;5.70;;;22.10;99.90;;;;;;5038207;28;20480;-81
2021/06/28 06:19:59;;;;;;;8.27;7.43;;;22.20;99.90;;;;;;5038423;28;20477;-81
2021/06/28 06:22:25;;;;;;;9.63;8.50;;;22.30;99.90;;;;;;5038445;28;20512;-80
2021/06/28 06:24:52;;;;;;;8.23;7.43;;;22.40;99.90;;;;;;5038903;28;20474;-81
2021/06/28 06:27:19;;;;;;;8.27;7.50;;;22.40;99.90;;;;;;5038831;28;20454;-81
2021/06/28 06:29:45;;;;;;;10.80;7.90;;;22.50;99.90;;;;;;5039020;28;20459;-81
2021/06/28 06:32:13;;;;;;;6.33;5.73;;;22.60;99.90;;;;;;5039538;28;20450;-80
2021/06/28 06:34:41;;;;;;;7.53;6.83;;;22.60;99.90;;;;;;5045953;28;20509;-80
2021/06/28 06:37:07;;;;;;;8.90;8.10;;;22.70;99.90;;;;;;5057134;28;20446;-79
2021/06/28 06:39:35;;;;;;;9.53;8.63;;;22.80;99.90;;;;;;5049229;28;20554;-81
2021/06/28 06:42:02;;;;;;;9.70;8.80;;;22.80;99.90;;;;;;5050660;28;20495;-80
2021/06/28 06:44:28;;;;;;;9.43;8.43;;;22.90;99.90;;;;;;5040085;28;20657;-80
2021/06/28 06:46:55;;;;;;;11.80;9.77;;;23.00;99.90;;;;;;5037013;28;20504;-80
2021/06/28 06:49:22;;;;;;;7.80;7.03;;;23.00;99.90;;;;;;5037733;28;20813;-80
2021/06/28 06:51:50;;;;;;;7.83;7.17;;;23.20;99.90;;;;;;5037834;28;20451;-80
2021/06/28 06:54:17;;;;;;;8.20;7.43;;;23.20;99.90;;;;;;5037480;28;20506;-81
2021/06/28 06:56:43;;;;;;;8.80;7.77;;;23.30;99.90;;;;;;5037329;28;20483;-80
2021/06/28 06:59:10;;;;;;;8.13;7.43;;;23.30;99.90;;;;;;5036387;28;20505;-78
2021/06/28 07:01:39;;;;;;;9.20;8.40;;;23.40;99.90;;;;;;5037292;28;20481;-80
2021/06/28 07:04:05;;;;;;;8.97;8.17;;;23.50;99.90;;;;;;5037315;28;20837;-80
2021/06/28 07:06:32;;;;;;;8.17;7.47;;;23.60;99.90;;;;;;5038142;28;20446;-81
2021/06/28 07:09:00;;;;;;;11.03;8.47;;;23.60;99.90;;;;;;5040751;28;20450;-81
2021/06/28 07:11:27;;;;;;;17.23;14.80;;;23.70;99.90;;;;;;5039104;28;20462;-80
2021/06/28 07:13:54;;;;;;;14.30;13.10;;;23.70;99.90;;;;;;5038562;28;20998;-80
2021/06/28 07:16:23;;;;;;;10.50;9.33;;;23.80;99.90;;;;;;5043720;28;20475;-80
2021/06/28 07:18:50;;;;;;;10.00;9.17;;;23.90;99.90;;;;;;5044479;28;20432;-80
2021/06/28 07:21:17;;;;;;;13.00;10.00;;;23.90;99.90;;;;;;5048066;28;20455;-80
2021/06/28 07:23:45;;;;;;;12.03;10.93;;;24.00;99.90;;;;;;5042986;28;20539;-80
2021/06/28 07:26:13;;;;;;;11.37;10.37;;;24.00;99.90;;;;;;5038906;28;20449;-83
2021/06/28 07:28:40;;;;;;;10.97;9.90;;;24.10;99.90;;;;;;5036358;28;20484;-80
2021/06/28 07:31:06;;;;;;;13.30;12.00;;;24.20;99.90;;;;;;5037198;28;20480;-81
2021/06/28 07:33:38;;;;;;;11.93;10.90;;;24.30;99.90;;;;;;5043642;28;20476;-80
2021/06/28 07:36:05;;;;;;;11.43;10.23;;;24.30;99.90;;;;;;5051438;28;20464;-79
2021/06/28 07:38:32;;;;;;;11.40;10.40;;;24.40;99.90;;;;;;5056874;28;20457;-78
2021/06/28 07:40:59;;;;;;;12.30;9.80;;;24.50;99.90;;;;;;5056853;28;20463;-79
2021/06/28 07:43:26;;;;;;;9.63;8.70;;;24.60;99.90;;;;;;5041720;28;20974;-79
2021/06/28 07:45:54;;;;;;;9.20;8.40;;;24.70;99.90;;;;;;5039625;28;20954;-79
2021/06/28 07:48:21;;;;;;;9.50;8.60;;;24.70;99.90;;;;;;5038001;28;20469;-79
2021/06/28 07:50:48;;;;;;;10.30;8.80;;;24.80;99.90;;;;;;5037214;28;20450;-80
2021/06/28 07:53:16;;;;;;;8.30;7.57;;;24.90;99.90;;;;;;5035835;28;20468;-80
2021/06/28 07:55:43;;;;;;;13.30;8.27;;;25.00;99.90;;;;;;5037338;28;20523;-80
2021/06/28 07:58:10;;;;;;;15.40;13.90;;;25.00;99.90;;;;;;5036945;28;20452;-80
2021/06/28 08:00:39;;;;;;;11.73;8.97;;;25.10;99.90;;;;;;5036449;28;20816;-79
2021/06/28 08:03:07;;;;;;;10.63;9.57;;;25.10;99.90;;;;;;5035651;28;20516;-79
2021/06/28 08:05:34;;;;;;;12.57;11.27;;;25.20;99.90;;;;;;5034798;28;20480;-79
2021/06/28 08:08:00;;;;;;;12.20;8.53;;;25.20;99.90;;;;;;5036836;28;20859;-79
2021/06/28 08:10:27;;;;;;;7.63;6.93;;;25.40;99.90;;;;;;5036198;28;20446;-80
2021/06/28 08:12:54;;;;;;;6.80;6.20;;;25.40;99.90;;;;;;5034844;28;20443;-78
2021/06/28 08:15:21;;;;;;;14.53;11.27;;;25.40;99.90;;;;;;5034157;28;20486;-79
2021/06/28 08:17:50;;;;;;;12.27;10.97;;;25.50;99.90;;;;;;5034157;28;20453;-79
2021/06/28 08:20:19;;;;;;;14.50;11.83;;;25.40;99.90;;;;;;5034227;28;20477;-79
2021/06/28 08:22:46;;;;;;;6.10;5.23;;;25.40;99.90;;;;;;5033870;28;20446;-79
2021/06/28 08:25:15;;;;;;;5.90;5.40;;;25.40;99.90;;;;;;5034460;28;20484;-80
2021/06/28 08:27:42;;;;;;;5.40;4.90;;;25.50;99.90;;;;;;5034487;28;20546;-79
2021/06/28 08:30:10;;;;;;;6.80;5.47;;;25.50;99.90;;;;;;5035213;28;20471;-79
2021/06/28 08:32:37;;;;;;;6.70;6.17;;;25.60;99.90;;;;;;5035355;28;20482;-79
2021/06/28 08:35:06;;;;;;;6.90;6.20;;;25.60;99.90;;;;;;5037242;28;20485;-80
2021/06/28 08:37:35;;;;;;;6.27;5.67;;;25.60;99.90;;;;;;5036388;28;20438;-79
2021/06/28 08:40:01;;;;;;;6.30;5.70;;;25.60;99.90;;;;;;5037044;28;20445;-80
2021/06/28 08:42:28;;;;;;;9.97;6.43;;;25.70;99.90;;;;;;5037523;28;20450;-79
2021/06/28 08:44:55;;;;;;;6.43;5.83;;;25.80;99.90;;;;;;5035353;28;20981;-79
2021/06/28 08:47:23;;;;;;;8.50;7.60;;;25.90;99.90;;;;;;5035050;28;20543;-79
2021/06/28 08:49:50;;;;;;;7.20;6.60;;;26.00;99.90;;;;;;5035484;28;20485;-79
2021/06/28 08:52:20;;;;;;;7.53;6.77;;;26.00;99.90;;;;;;5035059;28;20447;-79
2021/06/28 08:54:47;;;;;;;8.50;6.60;;;26.00;99.90;;;;;;5035081;28;20477;-80
2021/06/28 08:57:14;;;;;;;8.33;7.43;;;26.10;99.90;;;;;;5035872;28;20482;-78
2021/06/28 08:59:41;;;;;;;14.60;11.83;;;26.10;99.90;;;;;;5039521;28;20447;-77
2021/06/28 09:02:08;;;;;;;7.60;6.93;;;26.30;99.90;;;;;;5044043;28;20438;-79
2021/06/28 09:04:34;;;;;;;7.70;7.00;;;26.30;99.90;;;;;;5038927;28;20467;-78
2021/06/28 09:07:20;;;;;;;6.67;6.07;;;26.30;99.90;;;;;;5040461;28;20446;-79
2021/06/28 09:09:47;;;;;;;8.00;7.20;;;26.40;99.90;;;;;;5039226;28;20893;-77
2021/06/28 09:12:15;;;;;;;6.80;6.20;;;26.50;99.90;;;;;;5039656;28;20449;-78
2021/06/28 09:14:47;;;;;;;9.20;7.37;;;26.60;99.90;;;;;;5041186;28;20478;-78
2021/06/28 09:17:25;;;;;;;10.30;7.10;;;26.70;99.90;;;;;;5040829;28;20525;-79
2021/06/28 09:20:13;;;;;;;10.77;8.57;;;26.60;99.90;;;;;;5040493;28;20501;-79
2021/06/28 09:22:42;;;;;;;7.93;7.13;;;26.60;99.90;;;;;;5038979;28;20427;-79
2021/06/28 09:25:28;;;;;;;10.23;9.23;;;26.60;99.90;;;;;;5038551;28;20446;-79
2021/06/28 09:27:54;;;;;;;7.73;7.17;;;26.60;99.90;;;;;;5039245;28;20422;-80
2021/06/28 09:30:22;;;;;;;10.67;9.57;;;26.70;99.90;;;;;;5038610;28;20450;-79
2021/06/28 09:32:54;;;;;;;15.50;13.90;;;26.80;99.90;;;;;;5037799;28;20464;-79
2021/06/28 09:35:32;;;;;;;9.43;8.70;;;26.80;99.90;;;;;;5038530;28;20462;-79
2021/06/28 09:38:07;;;;;;;8.07;7.40;;;26.90;99.90;;;;;;5038776;28;20478;-79
2021/06/28 09:40:36;;;;;;;6.77;6.27;;;26.90;99.90;;;;;;5038370;28;20434;-80
2021/06/28 09:43:21;;;;;;;8.30;7.50;;;27.20;99.90;;;;;;5038298;28;20553;-80
2021/06/28 09:45:51;;;;;;;26.70;19.63;;;27.20;99.00;;;;;;5037910;28;20838;-79
2021/06/28 09:48:26;;;;;;;17.10;15.30;;;27.20;99.90;;;;;;5038855;28;20508;-80
2021/06/28 09:51:17;;;;;;;8.40;7.60;;;27.20;99.90;;;;;;5036902;28;20500;-80
2021/06/28 09:53:45;;;;;;;6.80;6.30;;;27.20;99.90;;;;;;5037167;28;21039;-80
2021/06/28 09:56:32;;;;;;;8.80;7.90;;;27.20;99.90;;;;;;5036895;28;20670;-79
2021/06/28 09:58:59;;;;;;;8.07;6.63;;;27.20;99.90;;;;;;5037727;28;20431;-80
2021/06/28 10:01:26;;;;;;;6.80;6.20;;;27.20;99.50;;;;;;5037036;28;20553;-80
2021/06/28 10:03:54;;;;;;;22.43;20.13;;;27.20;99.90;;;;;;5037273;28;20455;-80
2021/06/28 10:06:31;;;;;;;20.90;18.70;;;27.20;99.90;;;;;;5036968;28;20894;-80
2021/06/28 10:09:06;;;;;;;7.80;7.10;;;27.30;99.90;;;;;;5037630;28;20454;-80
2021/06/28 10:11:33;;;;;;;6.53;6.03;;;27.40;99.50;;;;;;5037474;28;20457;-79
2021/06/28 10:14:02;;;;;;;9.33;7.80;;;27.40;99.00;;;;;;5036508;28;21005;-79
2021/06/28 10:16:31;;;;;;;7.50;4.93;;;27.40;99.30;;;;;;5036368;28;20501;-80
2021/06/28 10:18:59;;;;;;;6.87;6.17;;;27.40;95.10;;;;;;5042786;28;20446;-79
2021/06/28 10:21:27;;;;;;;19.40;16.13;;;27.40;98.80;;;;;;5044488;28;20502;-79
2021/06/28 10:23:55;;;;;;;10.87;9.80;;;27.50;99.20;;;;;;5043773;28;20474;-78
2021/06/28 10:26:23;;;;;;;15.10;12.90;;;27.50;98.60;;;;;;5041568;28;20439;-79
2021/06/28 10:28:51;;;;;;;7.20;6.60;;;27.60;99.10;;;;;;5039930;28;20473;-79
2021/06/28 10:31:18;;;;;;;12.30;10.70;;;27.60;99.10;;;;;;5039050;28;20473;-78
2021/06/28 10:33:52;;;;;;;6.43;5.83;;;27.70;98.60;;;;;;5039906;28;20474;-78
2021/06/28 10:36:20;;;;;;;7.30;6.60;;;27.70;97.40;;;;;;5036000;28;20471;-79
2021/06/28 10:38:49;;;;;;;5.03;4.67;;;27.80;96.50;;;;;;5036559;28;20504;-78
2021/06/28 10:41:35;;;;;;;5.27;4.87;;;28.00;92.80;;;;;;5036533;28;20443;-78
2021/06/28 10:44:03;;;;;;;7.30;6.70;;;28.10;93.30;;;;;;5035725;28;20832;-78
2021/06/28 10:46:32;;;;;;;7.47;6.77;;;28.10;95.60;;;;;;5035885;28;20443;-78
2021/06/28 10:48:58;;;;;;;15.40;13.70;;;28.00;95.00;;;;;;5036250;28;20463;-80
2021/06/28 10:51:39;;;;;;;5.93;5.43;;;28.00;95.20;;;;;;5036630;28;20456;-79
2021/06/28 10:54:06;;;;;;;5.40;4.97;;;27.90;93.00;;;;;;5036189;28;20536;-79
2021/06/28 10:57:02;;;;;;;20.10;17.90;;;27.90;92.40;;;;;;5035726;28;20482;-79
2021/06/28 10:59:40;;;;;;;11.50;10.30;;;27.80;94.70;;;;;;5035298;28;20454;-79
2021/06/28 11:02:11;;;;;;;9.63;5.53;;;27.80;94.80;;;;;;5035532;28;20956;-79
2021/06/28 11:04:41;;;;;;;18.37;16.27;;;27.70;91.80;;;;;;5035322;28;20474;-78
2021/06/28 11:07:13;;;;;;;8.10;7.30;;;27.70;95.50;;;;;;5035515;28;20438;-78
2021/06/28 11:09:43;;;;;;;20.27;15.47;;;27.70;95.40;;;;;;5035198;28;20493;-79
2021/06/28 11:12:24;;;;;;;6.07;5.60;;;27.60;95.50;;;;;;5035702;28;20501;-79
2021/06/28 11:14:52;;;;;;;5.20;4.80;;;27.70;95.30;;;;;;5034942;28;20605;-79
2021/06/28 11:17:22;;;;;;;7.80;7.10;;;27.70;95.70;;;;;;5035670;28;20554;-79
2021/06/28 11:20:01;;;;;;;6.70;6.10;;;27.80;94.70;;;;;;5035006;28;20456;-79
2021/06/28 11:22:41;;;;;;;4.80;4.40;;;27.90;93.90;;;;;;5035808;28;20440;-78
2021/06/28 11:25:24;;;;;;;6.07;5.17;;;28.00;93.20;;;;;;5038983;28;20433;-78
2021/06/28 11:28:11;;;;;;;4.63;4.23;;;28.00;93.50;;;;;;5036541;28;20461;-78
2021/06/28 11:30:50;;;;;;;5.17;4.70;;;28.00;92.90;;;;;;5054358;28;20460;-78
2021/06/28 11:33:31;;;;;;;5.70;4.20;;;28.00;93.00;;;;;;5044261;28;20802;-78
2021/06/28 11:35:58;;;;;;;4.30;4.00;;;27.90;87.80;;;;;;5039436;28;20433;-80
2021/06/28 11:38:26;;;;;;;4.53;4.23;;;27.80;92.60;;;;;;5037217;28;20485;-78
2021/06/28 11:40:57;;;;;;;5.13;4.73;;;27.90;93.10;;;;;;5036540;28;21001;-79
2021/06/28 11:43:43;;;;;;;4.57;4.20;;;27.90;93.20;;;;;;5037165;28;20460;-79
2021/06/28 11:46:12;;;;;;;5.33;4.87;;;28.00;93.00;;;;;;5038704;28;20450;-78
2021/06/28 11:48:41;;;;;;;5.23;4.77;;;28.00;93.30;;;;;;5040020;28;20531;-78
2021/06/28 11:51:20;;;;;;;4.70;4.40;;;28.10;93.20;;;;;;5038446;28;20436;-78
2021/06/28 11:53:56;;;;;;;5.57;5.17;;;28.20;92.10;;;;;;5039552;28;20472;-79
2021/06/28 11:56:30;;;;;;;5.97;5.40;;;28.30;92.00;;;;;;5039270;28;20543;-80
2021/06/28 11:59:01;;;;;;;5.60;5.10;;;28.40;93.20;;;;;;5045636;28;20440;-77
2021/06/28 12:01:30;;;;;;;4.40;4.10;;;28.50;92.90;;;;;;5039678;28;20857;-77
2021/06/28 12:03:58;;;;;;;6.13;5.63;;;28.50;93.30;;;;;;5039286;28;20470;-78
2021/06/28 12:06:29;;;;;;;7.33;5.43;;;28.50;92.90;;;;;;5039710;28;20507;-78
2021/06/28 12:09:14;;;;;;;5.40;5.00;;;28.50;92.70;;;;;;5039153;28;20859;-79
2021/06/28 12:11:52;;;;;;;7.20;6.50;;;28.70;92.30;;;;;;5037191;28;20434;-78
2021/06/28 12:14:36;;;;;;;5.73;5.23;;;28.80;90.20;;;;;;5036074;28;20580;-78
2021/06/28 12:17:10;;;;;;;5.27;4.87;;;28.90;90.80;;;;;;5036063;28;20495;-79
2021/06/28 12:19:38;;;;;;;13.10;9.30;;;28.80;91.00;;;;;;5036013;28;20438;-79
2021/06/28 12:22:12;;;;;;;13.40;11.60;;;28.80;91.30;;;;;;5036445;28;20462;-79
2021/06/28 12:24:38;;;;;;;5.50;5.10;;;28.70;90.60;;;;;;5035661;28;20495;-78
2021/06/28 12:27:07;;;;;;;5.10;4.70;;;28.50;83.20;;;;;;5037055;28;20964;-80
2021/06/28 12:29:38;;;;;;;10.57;9.47;;;28.30;85.90;;;;;;5037220;28;20456;-79
2021/06/28 12:32:22;;;;;;;19.57;16.73;;;28.30;90.00;;;;;;5036633;28;20443;-79
2021/06/28 12:34:51;;;;;;;28.90;24.87;;;28.30;90.60;;;;;;5036166;28;20499;-79
2021/06/28 12:37:29;;;;;;;8.80;8.00;;;28.20;91.50;;;;;;5044650;28;20476;-78
2021/06/28 12:40:15;;;;;;;14.10;12.10;;;28.10;91.60;;;;;;5057702;28;20480;-79
2021/06/28 12:42:43;;;;;;;5.73;5.30;;;28.10;91.10;;;;;;5052034;28;20523;-80
2021/06/28 12:45:13;;;;;;;5.40;5.00;;;28.10;89.90;;;;;;5041778;28;20447;-79
2021/06/28 12:47:41;;;;;;;5.10;4.70;;;28.10;86.00;;;;;;5038979;28;20424;-80
2021/06/28 12:50:12;;;;;;;4.87;4.57;;;28.30;83.20;;;;;;5039109;28;20454;-79
2021/06/28 12:52:39;;;;;;;4.93;4.30;;;28.40;87.50;;;;;;5039133;28;20846;-79
2021/06/28 12:55:12;;;;;;;8.77;7.87;;;28.60;85.20;;;;;;5038227;28;20997;-79